sensor_id;sensor_type;location;lat;lon;timestamp;pressure;altitude;pressure_sealevel;temperature;humidity
25638;BME280;13496;51.040;13.680;2023-12-20T00:00:12;99376.75;;;17.95;53.04
25638;BME280;13496;51.040;13.680;2023-12-20T00:05:14;99378.75;;;17.93;53.03
25638;BME280;13496;51.040;13.680;2023-12-20T00:10:16;99367.44;;;17.93;53.28
25638;BME280;13496;51.040;13.680;2023-12-20T00:15:17;99361.19;;;17.94;52.86
25638;BME280;13496;51.040;13.680;2023-12-20T00:20:19;99353.88;;;17.89;52.99
25638;BME280;13496;51.040;13.680;2023-12-20T00:25:21;99356.94;;;17.93;53.24
25638;BME280;13496;51.040;13.680;2023-12-20T00:30:22;99352.69;;;17.92;53.19
25638;BME280;13496;51.040;13.680;2023-12-20T00:35:24;99357.16;;;17.91;53.19
25638;BME280;13496;51.040;13.680;2023-12-20T00:40:26;99351.69;;;17.93;53.22
25638;BME280;13496;51.040;13.680;2023-12-20T00:45:28;99348.06;;;17.94;53.26
25638;BME280;13496;51.040;13.680;2023-12-20T00:50:30;99338.56;;;17.93;53.42
25638;BME280;13496;51.040;13.680;2023-12-20T00:55:32;99327.06;;;17.94;53.31
25638;BME280;13496;51.040;13.680;2023-12-20T01:00:34;99324.63;;;17.92;52.06
25638;BME280;13496;51.040;13.680;2023-12-20T01:05:35;99322.00;;;17.92;53.32
25638;BME280;13496;51.040;13.680;2023-12-20T01:10:37;99310.06;;;17.89;52.59
25638;BME280;13496;51.040;13.680;2023-12-20T01:15:39;99305.47;;;17.92;53.43
25638;BME280;13496;51.040;13.680;2023-12-20T01:20:41;99293.53;;;17.89;53.17
25638;BME280;13496;51.040;13.680;2023-12-20T01:25:42;99294.72;;;17.86;52.85
25638;BME280;13496;51.040;13.680;2023-12-20T01:30:44;99292.28;;;17.85;52.72
25638;BME280;13496;51.040;13.680;2023-12-20T01:35:46;99297.72;;;17.83;52.90
25638;BME280;13496;51.040;13.680;2023-12-20T01:40:48;99290.69;;;17.84;53.00
25638;BME280;13496;51.040;13.680;2023-12-20T01:45:50;99284.00;;;17.81;52.86
25638;BME280;13496;51.040;13.680;2023-12-20T01:50:52;99283.63;;;17.84;53.13
25638;BME280;13496;51.040;13.680;2023-12-20T01:55:56;99272.50;;;17.82;51.34
25638;BME280;13496;51.040;13.680;2023-12-20T02:00:59;99279.97;;;17.85;53.10
25638;BME280;13496;51.040;13.680;2023-12-20T02:06:01;99278.38;;;17.84;53.40
25638;BME280;13496;51.040;13.680;2023-12-20T02:11:04;99272.50;;;17.82;53.19
25638;BME280;13496;51.040;13.680;2023-12-20T02:16:05;99255.72;;;17.83;53.01
25638;BME280;13496;51.040;13.680;2023-12-20T02:21:09;99261.19;;;17.82;52.72
25638;BME280;13496;51.040;13.680;2023-12-20T02:26:12;99250.91;;;17.80;53.10
25638;BME280;13496;51.040;13.680;2023-12-20T02:31:15;99258.78;;;17.80;52.85
25638;BME280;13496;51.040;13.680;2023-12-20T02:36:17;99256.75;;;17.82;52.82
25638;BME280;13496;51.040;13.680;2023-12-20T02:41:19;99250.28;;;17.78;52.85
25638;BME280;13496;51.040;13.680;2023-12-20T02:46:20;99241.22;;;17.81;52.53
25638;BME280;13496;51.040;13.680;2023-12-20T02:51:22;99240.41;;;17.80;53.26
25638;BME280;13496;51.040;13.680;2023-12-20T02:56:24;99255.13;;;17.81;52.93
25638;BME280;13496;51.040;13.680;2023-12-20T03:01:26;99257.53;;;17.76;52.89
25638;BME280;13496;51.040;13.680;2023-12-20T03:06:28;99255.34;;;17.80;52.91
25638;BME280;13496;51.040;13.680;2023-12-20T03:11:30;99241.38;;;17.79;52.94
25638;BME280;13496;51.040;13.680;2023-12-20T03:16:32;99246.63;;;17.79;52.95
25638;BME280;13496;51.040;13.680;2023-12-20T03:21:34;99243.22;;;17.79;52.70
25638;BME280;13496;51.040;13.680;2023-12-20T03:26:36;99233.72;;;17.78;53.08
25638;BME280;13496;51.040;13.680;2023-12-20T03:31:38;99226.66;;;17.78;52.64
25638;BME280;13496;51.040;13.680;2023-12-20T03:36:40;99209.47;;;17.76;52.78
25638;BME280;13496;51.040;13.680;2023-12-20T03:41:41;99218.34;;;17.75;53.02
25638;BME280;13496;51.040;13.680;2023-12-20T03:46:43;99221.16;;;17.73;52.60
25638;BME280;13496;51.040;13.680;2023-12-20T03:51:47;99221.97;;;17.74;52.73
25638;BME280;13496;51.040;13.680;2023-12-20T03:56:48;99214.72;;;17.76;52.70
25638;BME280;13496;51.040;13.680;2023-12-20T04:01:50;99227.03;;;17.75;52.79
25638;BME280;13496;51.040;13.680;2023-12-20T04:06:52;99224.41;;;17.75;52.74
25638;BME280;13496;51.040;13.680;2023-12-20T04:11:54;99223.44;;;17.76;52.85
25638;BME280;13496;51.040;13.680;2023-12-20T04:16:55;99218.34;;;17.75;52.92
25638;BME280;13496;51.040;13.680;2023-12-20T04:21:57;99219.34;;;17.74;52.44
25638;BME280;13496;51.040;13.680;2023-12-20T04:26:59;99213.28;;;17.73;52.47
25638;BME280;13496;51.040;13.680;2023-12-20T04:32:01;99225.41;;;17.74;52.26
25638;BME280;13496;51.040;13.680;2023-12-20T04:37:03;99220.16;;;17.74;52.69
25638;BME280;13496;51.040;13.680;2023-12-20T04:42:04;99214.47;;;17.71;52.69
25638;BME280;13496;51.040;13.680;2023-12-20T04:47:06;99219.53;;;17.72;53.01
25638;BME280;13496;51.040;13.680;2023-12-20T04:52:08;99219.53;;;17.72;51.73
25638;BME280;13496;51.040;13.680;2023-12-20T04:57:10;99235.09;;;17.74;51.82
25638;BME280;13496;51.040;13.680;2023-12-20T05:02:11;99233.66;;;17.71;53.11
25638;BME280;13496;51.040;13.680;2023-12-20T05:07:13;99224.97;;;17.71;52.91
25638;BME280;13496;51.040;13.680;2023-12-20T05:12:15;99238.91;;;17.71;53.43
25638;BME280;13496;51.040;13.680;2023-12-20T05:17:17;99228.41;;;17.71;53.67
25638;BME280;13496;51.040;13.680;2023-12-20T05:22:19;99224.97;;;17.71;53.87
25638;BME280;13496;51.040;13.680;2023-12-20T05:27:21;99247.78;;;17.70;53.78
25638;BME280;13496;51.040;13.680;2023-12-20T05:32:23;99241.91;;;17.68;53.86
25638;BME280;13496;51.040;13.680;2023-12-20T05:37:25;99245.53;;;17.67;53.73
25638;BME280;13496;51.040;13.680;2023-12-20T05:42:27;99240.94;;;17.69;53.94
25638;BME280;13496;51.040;13.680;2023-12-20T05:47:29;99256.00;;;17.60;52.93
25638;BME280;13496;51.040;13.680;2023-12-20T05:52:30;99251.19;;;17.64;53.30
25638;BME280;13496;51.040;13.680;2023-12-20T05:57:32;99261.50;;;17.65;54.16
25638;BME280;13496;51.040;13.680;2023-12-20T06:02:34;99276.19;;;17.60;52.90
25638;BME280;13496;51.040;13.680;2023-12-20T06:07:36;99283.03;;;17.54;53.13
25638;BME280;13496;51.040;13.680;2023-12-20T06:12:38;99279.97;;;17.51;53.16
25638;BME280;13496;51.040;13.680;2023-12-20T06:17:40;99283.03;;;17.54;53.64
25638;BME280;13496;51.040;13.680;2023-12-20T06:22:41;99285.81;;;17.53;54.01
25638;BME280;13496;51.040;13.680;2023-12-20T06:27:43;99277.94;;;17.53;53.30
25638;BME280;13496;51.040;13.680;2023-12-20T06:32:45;99294.06;;;17.50;52.98
25638;BME280;13496;51.040;13.680;2023-12-20T06:37:48;99301.50;;;17.46;52.53
25638;BME280;13496;51.040;13.680;2023-12-20T06:42:50;99313.44;;;17.49;52.73
25638;BME280;13496;51.040;13.680;2023-12-20T06:47:52;99324.72;;;17.49;53.83
25638;BME280;13496;51.040;13.680;2023-12-20T06:52:53;99331.38;;;17.45;53.87
25638;BME280;13496;51.040;13.680;2023-12-20T06:57:55;99342.13;;;17.50;53.59
25638;BME280;13496;51.040;13.680;2023-12-20T07:02:57;99344.91;;;17.49;54.04
25638;BME280;13496;51.040;13.680;2023-12-20T07:07:59;99339.75;;;17.34;52.02
25638;BME280;13496;51.040;13.680;2023-12-20T07:13:00;99356.16;;;17.42;54.11
25638;BME280;13496;51.040;13.680;2023-12-20T07:18:03;99340.41;;;17.42;53.62
25638;BME280;13496;51.040;13.680;2023-12-20T07:23:05;99346.50;;;17.43;53.86
25638;BME280;13496;51.040;13.680;2023-12-20T07:28:06;99354.16;;;17.45;52.59
25638;BME280;13496;51.040;13.680;2023-12-20T07:33:08;99350.09;;;17.42;53.32
25638;BME280;13496;51.040;13.680;2023-12-20T07:38:11;99352.56;;;17.44;52.93
25638;BME280;13496;51.040;13.680;2023-12-20T07:43:13;99349.66;;;17.38;51.92
25638;BME280;13496;51.040;13.680;2023-12-20T07:48:15;99345.50;;;17.44;54.02
25638;BME280;13496;51.040;13.680;2023-12-20T07:53:17;99345.13;;;17.47;54.19
25638;BME280;13496;51.040;13.680;2023-12-20T07:58:19;99343.91;;;17.50;54.52
25638;BME280;13496;51.040;13.680;2023-12-20T08:03:21;99341.28;;;17.50;54.46
25638;BME280;13496;51.040;13.680;2023-12-20T08:08:24;99348.53;;;17.76;54.24
25638;BME280;13496;51.040;13.680;2023-12-20T08:13:26;99339.25;;;18.08;53.34
25638;BME280;13496;51.040;13.680;2023-12-20T08:18:28;99350.25;;;18.25;53.02
25638;BME280;13496;51.040;13.680;2023-12-20T08:23:30;99342.09;;;18.06;52.96
25638;BME280;13496;51.040;13.680;2023-12-20T08:28:32;99340.81;;;17.96;53.27
25638;BME280;13496;51.040;13.680;2023-12-20T08:33:34;99329.56;;;18.08;53.30
25638;BME280;13496;51.040;13.680;2023-12-20T08:38:36;99331.41;;;18.14;53.09
25638;BME280;13496;51.040;13.680;2023-12-20T08:43:38;99331.19;;;18.16;53.28
25638;BME280;13496;51.040;13.680;2023-12-20T08:48:43;99331.19;;;18.16;53.32
25638;BME280;13496;51.040;13.680;2023-12-20T08:53:45;99346.16;;;18.16;53.39
25638;BME280;13496;51.040;13.680;2023-12-20T08:58:49;99346.34;;;18.14;53.39
25638;BME280;13496;51.040;13.680;2023-12-20T09:03:50;99359.06;;;18.10;53.73
25638;BME280;13496;51.040;13.680;2023-12-20T09:08:52;99350.97;;;18.12;53.56
25638;BME280;13496;51.040;13.680;2023-12-20T09:13:54;99357.41;;;18.09;53.31
25638;BME280;13496;51.040;13.680;2023-12-20T09:18:56;99361.47;;;18.12;52.82
25638;BME280;13496;51.040;13.680;2023-12-20T09:23:58;99350.97;;;18.12;53.35
25638;BME280;13496;51.040;13.680;2023-12-20T09:29:00;99347.38;;;18.20;52.91
25638;BME280;13496;51.040;13.680;2023-12-20T09:34:02;99347.78;;;18.23;52.09
25638;BME280;13496;51.040;13.680;2023-12-20T09:39:04;99332.44;;;18.20;52.76
25638;BME280;13496;51.040;13.680;2023-12-20T09:44:08;99328.75;;;18.08;51.27
25638;BME280;13496;51.040;13.680;2023-12-20T09:49:13;99312.59;;;18.11;52.09
25638;BME280;13496;51.040;13.680;2023-12-20T09:54:20;99319.88;;;18.16;53.14
25638;BME280;13496;51.040;13.680;2023-12-20T09:59:22;99321.88;;;18.07;52.83
25638;BME280;13496;51.040;13.680;2023-12-20T10:04:24;99315.41;;;18.03;51.17
25638;BME280;13496;51.040;13.680;2023-12-20T10:09:28;99308.88;;;17.92;50.58
25638;BME280;13496;51.040;13.680;2023-12-20T10:14:32;99296.84;;;18.11;51.83
25638;BME280;13496;51.040;13.680;2023-12-20T10:19:34;99291.91;;;18.43;52.26
25638;BME280;13496;51.040;13.680;2023-12-20T10:24:36;99286.09;;;18.67;50.06
25638;BME280;13496;51.040;13.680;2023-12-20T10:29:38;99274.00;;;18.79;51.36
25638;BME280;13496;51.040;13.680;2023-12-20T10:34:40;99263.91;;;18.96;51.32
25638;BME280;13496;51.040;13.680;2023-12-20T10:39:42;99269.78;;;19.18;48.78
25638;BME280;13496;51.040;13.680;2023-12-20T10:44:44;99262.09;;;19.10;48.60
25638;BME280;13496;51.040;13.680;2023-12-20T10:49:46;99245.31;;;18.98;50.21
25638;BME280;13496;51.040;13.680;2023-12-20T10:54:49;99230.75;;;18.95;49.56
25638;BME280;13496;51.040;13.680;2023-12-20T10:59:53;99226.91;;;18.71;43.25
25638;BME280;13496;51.040;13.680;2023-12-20T11:05:01;99237.97;;;18.60;48.06
25638;BME280;13496;51.040;13.680;2023-12-20T11:15:21;99236.72;;;18.43;48.61
25638;BME280;13496;51.040;13.680;2023-12-20T11:20:24;99222.38;;;18.38;49.98
25638;BME280;13496;51.040;13.680;2023-12-20T11:25:26;99215.91;;;18.21;48.26
25638;BME280;13496;51.040;13.680;2023-12-20T11:30:45;99225.78;;;18.19;46.85
25638;BME280;13496;51.040;13.680;2023-12-20T11:35:47;99232.00;;;18.05;46.91
25638;BME280;13496;51.040;13.680;2023-12-20T11:40:50;99220.34;;;18.14;49.13
25638;BME280;13496;51.040;13.680;2023-12-20T11:45:52;99217.25;;;18.04;49.90
25638;BME280;13496;51.040;13.680;2023-12-20T11:50:54;99220.00;;;17.82;48.05
25638;BME280;13496;51.040;13.680;2023-12-20T11:55:55;99201.03;;;17.87;48.96
25638;BME280;13496;51.040;13.680;2023-12-20T12:00:57;99191.38;;;17.87;48.54
25638;BME280;13496;51.040;13.680;2023-12-20T12:06:00;99182.47;;;17.82;49.47
25638;BME280;13496;51.040;13.680;2023-12-20T12:11:02;99187.94;;;17.80;47.33
25638;BME280;13496;51.040;13.680;2023-12-20T12:16:05;99178.38;;;17.73;47.24
25638;BME280;13496;51.040;13.680;2023-12-20T12:21:07;99165.81;;;17.68;47.99
25638;BME280;13496;51.040;13.680;2023-12-20T12:26:08;99149.69;;;17.71;48.38
25638;BME280;13496;51.040;13.680;2023-12-20T12:31:14;99145.06;;;17.73;48.68
25638;BME280;13496;51.040;13.680;2023-12-20T12:36:18;99137.59;;;17.70;47.40
25638;BME280;13496;51.040;13.680;2023-12-20T12:41:20;99142.22;;;17.68;48.67
25638;BME280;13496;51.040;13.680;2023-12-20T12:46:22;99135.16;;;17.69;48.91
25638;BME280;13496;51.040;13.680;2023-12-20T12:51:23;99111.41;;;17.77;49.66
25638;BME280;13496;51.040;13.680;2023-12-20T12:56:25;99105.50;;;17.75;49.37
25638;BME280;13496;51.040;13.680;2023-12-20T13:01:27;99109.38;;;17.79;49.23
25638;BME280;13496;51.040;13.680;2023-12-20T13:06:29;99108.97;;;17.75;49.25
25638;BME280;13496;51.040;13.680;2023-12-20T13:11:31;99101.28;;;17.74;49.15
25638;BME280;13496;51.040;13.680;2023-12-20T13:16:33;99088.75;;;17.69;49.81
25638;BME280;13496;51.040;13.680;2023-12-20T13:21:36;99085.78;;;17.79;50.77
25638;BME280;13496;51.040;13.680;2023-12-20T13:26:37;99086.56;;;17.73;48.08
25638;BME280;13496;51.040;13.680;2023-12-20T13:31:39;99074.63;;;17.70;49.00
25638;BME280;13496;51.040;13.680;2023-12-20T13:36:43;99087.13;;;17.68;49.14
25638;BME280;13496;51.040;13.680;2023-12-20T13:41:47;99083.53;;;17.76;49.27
25638;BME280;13496;51.040;13.680;2023-12-20T13:46:49;99076.03;;;17.66;47.84
25638;BME280;13496;51.040;13.680;2023-12-20T13:51:51;99067.34;;;17.72;51.12
25638;BME280;13496;51.040;13.680;2023-12-20T13:56:54;99062.38;;;17.77;51.64
25638;BME280;13496;51.040;13.680;2023-12-20T14:01:56;99057.88;;;17.71;50.64
25638;BME280;13496;51.040;13.680;2023-12-20T14:06:58;99052.59;;;17.64;48.35
25638;BME280;13496;51.040;13.680;2023-12-20T14:12:00;99043.50;;;17.54;47.24
25638;BME280;13496;51.040;13.680;2023-12-20T14:17:02;99036.28;;;17.62;50.33
25638;BME280;13496;51.040;13.680;2023-12-20T14:22:04;99035.66;;;17.60;51.27
25638;BME280;13496;51.040;13.680;2023-12-20T14:27:06;99040.72;;;17.62;50.26
25638;BME280;13496;51.040;13.680;2023-12-20T14:32:08;99024.34;;;17.60;50.49
25638;BME280;13496;51.040;13.680;2023-12-20T14:37:10;99030.63;;;17.59;50.86
25638;BME280;13496;51.040;13.680;2023-12-20T14:42:11;99046.53;;;17.57;50.24
25638;BME280;13496;51.040;13.680;2023-12-20T14:47:15;99042.72;;;17.47;49.71
25638;BME280;13496;51.040;13.680;2023-12-20T14:52:20;99037.03;;;17.43;52.09
25638;BME280;13496;51.040;13.680;2023-12-20T14:57:21;99040.66;;;17.42;50.68
25638;BME280;13496;51.040;13.680;2023-12-20T15:02:23;99039.81;;;17.35;48.74
25638;BME280;13496;51.040;13.680;2023-12-20T15:07:25;99035.38;;;17.29;48.65
25638;BME280;13496;51.040;13.680;2023-12-20T15:12:27;99035.00;;;17.32;50.33
25638;BME280;13496;51.040;13.680;2023-12-20T15:17:28;99049.50;;;17.34;50.57
25638;BME280;13496;51.040;13.680;2023-12-20T15:22:31;99031.97;;;17.28;49.81
25638;BME280;13496;51.040;13.680;2023-12-20T15:27:35;99031.75;;;17.30;49.67
25638;BME280;13496;51.040;13.680;2023-12-20T15:32:39;99031.94;;;17.22;50.33
25638;BME280;13496;51.040;13.680;2023-12-20T15:37:41;99037.34;;;17.20;48.20
25638;BME280;13496;51.040;13.680;2023-12-20T15:42:43;99049.91;;;17.31;51.17
25638;BME280;13496;51.040;13.680;2023-12-20T15:47:45;99054.75;;;17.34;51.55
25638;BME280;13496;51.040;13.680;2023-12-20T15:52:47;99057.59;;;17.33;49.86
25638;BME280;13496;51.040;13.680;2023-12-20T15:57:49;99053.56;;;17.37;51.29
25638;BME280;13496;51.040;13.680;2023-12-20T16:02:51;99060.38;;;17.31;51.06
25638;BME280;13496;51.040;13.680;2023-12-20T16:07:53;99066.03;;;17.28;49.07
25638;BME280;13496;51.040;13.680;2023-12-20T16:12:55;99072.06;;;17.22;50.75
25638;BME280;13496;51.040;13.680;2023-12-20T16:17:57;99066.81;;;17.22;48.57
25638;BME280;13496;51.040;13.680;2023-12-20T16:23:00;99066.78;;;17.15;49.58
25638;BME280;13496;51.040;13.680;2023-12-20T16:28:01;99055.50;;;17.15;48.28
25638;BME280;13496;51.040;13.680;2023-12-20T16:33:04;99056.53;;;17.27;51.83
25638;BME280;13496;51.040;13.680;2023-12-20T16:38:05;99066.88;;;17.35;50.74
25638;BME280;13496;51.040;13.680;2023-12-20T16:43:07;99069.69;;;17.34;48.06
25638;BME280;13496;51.040;13.680;2023-12-20T16:48:09;99072.28;;;17.27;48.93
25638;BME280;13496;51.040;13.680;2023-12-20T16:53:11;99073.28;;;17.26;50.62
25638;BME280;13496;51.040;13.680;2023-12-20T16:58:13;99071.72;;;17.32;49.52
25638;BME280;13496;51.040;13.680;2023-12-20T17:03:16;99062.44;;;17.36;49.94
25638;BME280;13496;51.040;13.680;2023-12-20T17:08:18;99078.91;;;17.23;47.84
25638;BME280;13496;51.040;13.680;2023-12-20T17:13:20;99074.75;;;17.35;50.58
25638;BME280;13496;51.040;13.680;2023-12-20T17:18:21;99087.84;;;17.35;49.41
25638;BME280;13496;51.040;13.680;2023-12-20T17:23:23;99074.50;;;17.30;50.47
25638;BME280;13496;51.040;13.680;2023-12-20T17:28:25;99078.75;;;17.38;50.81
25638;BME280;13496;51.040;13.680;2023-12-20T17:33:27;99083.63;;;17.41;50.28
25638;BME280;13496;51.040;13.680;2023-12-20T17:38:29;99088.88;;;17.41;49.34
25638;BME280;13496;51.040;13.680;2023-12-20T17:43:30;99088.66;;;17.42;50.14
25638;BME280;13496;51.040;13.680;2023-12-20T17:48:32;99103.34;;;17.30;50.62
25638;BME280;13496;51.040;13.680;2023-12-20T17:53:34;99096.69;;;17.34;49.78
25638;BME280;13496;51.040;13.680;2023-12-20T17:58:36;99097.13;;;17.38;51.13
25638;BME280;13496;51.040;13.680;2023-12-20T18:03:37;99105.41;;;17.41;52.06
25638;BME280;13496;51.040;13.680;2023-12-20T18:08:39;99101.97;;;17.41;51.96
25638;BME280;13496;51.040;13.680;2023-12-20T18:13:42;99104.25;;;17.51;52.42
25638;BME280;13496;51.040;13.680;2023-12-20T18:18:44;99113.53;;;17.60;52.50
25638;BME280;13496;51.040;13.680;2023-12-20T18:23:45;99106.47;;;17.60;52.74
25638;BME280;13496;51.040;13.680;2023-12-20T18:28:47;99104.28;;;17.64;52.96
25638;BME280;13496;51.040;13.680;2023-12-20T18:33:50;99107.53;;;17.66;53.06
25638;BME280;13496;51.040;13.680;2023-12-20T18:38:51;99112.75;;;17.66;52.88
25638;BME280;13496;51.040;13.680;2023-12-20T18:43:53;99118.59;;;17.68;53.66
25638;BME280;13496;51.040;13.680;2023-12-20T18:48:55;99115.00;;;17.69;53.14
25638;BME280;13496;51.040;13.680;2023-12-20T18:53:57;99109.34;;;17.65;53.11
25638;BME280;13496;51.040;13.680;2023-12-20T18:58:59;99112.38;;;17.69;53.29
25638;BME280;13496;51.040;13.680;2023-12-20T19:04:01;99111.38;;;17.70;53.62
25638;BME280;13496;51.040;13.680;2023-12-20T19:09:03;99123.47;;;17.71;53.57
25638;BME280;13496;51.040;13.680;2023-12-20T19:14:05;99112.38;;;17.69;53.58
25638;BME280;13496;51.040;13.680;2023-12-20T19:19:10;99120.25;;;17.69;54.00
25638;BME280;13496;51.040;13.680;2023-12-20T19:24:11;99114.16;;;17.69;53.63
25638;BME280;13496;51.040;13.680;2023-12-20T19:29:13;99108.91;;;17.69;53.46
25638;BME280;13496;51.040;13.680;2023-12-20T19:34:15;99093.38;;;17.67;53.81
25638;BME280;13496;51.040;13.680;2023-12-20T19:39:17;99093.59;;;17.65;53.40
25638;BME280;13496;51.040;13.680;2023-12-20T19:44:20;99079.69;;;17.65;53.31
25638;BME280;13496;51.040;13.680;2023-12-20T19:49:23;99071.56;;;17.60;52.95
25638;BME280;13496;51.040;13.680;2023-12-20T19:54:24;99060.25;;;17.53;51.06
25638;BME280;13496;51.040;13.680;2023-12-20T19:59:26;99062.50;;;17.56;52.74
25638;BME280;13496;51.040;13.680;2023-12-20T20:04:28;99055.03;;;17.59;53.53
25638;BME280;13496;51.040;13.680;2023-12-20T20:09:30;99045.72;;;17.57;53.88
25638;BME280;13496;51.040;13.680;2023-12-20T20:14:32;99033.00;;;17.54;52.76
25638;BME280;13496;51.040;13.680;2023-12-20T20:19:33;99030.56;;;17.46;53.33
25638;BME280;13496;51.040;13.680;2023-12-20T20:24:35;99031.38;;;17.46;52.74
25638;BME280;13496;51.040;13.680;2023-12-20T20:29:37;99020.91;;;17.39;49.95
25638;BME280;13496;51.040;13.680;2023-12-20T20:34:39;99015.84;;;17.38;51.01
25638;BME280;13496;51.040;13.680;2023-12-20T20:39:41;98994.44;;;17.34;52.77
25638;BME280;13496;51.040;13.680;2023-12-20T20:44:43;98994.63;;;17.26;51.33
25638;BME280;13496;51.040;13.680;2023-12-20T20:49:45;98991.41;;;17.31;52.58
25638;BME280;13496;51.040;13.680;2023-12-20T20:54:47;98986.16;;;17.31;52.20
25638;BME280;13496;51.040;13.680;2023-12-20T20:59:48;98971.66;;;17.28;50.92
25638;BME280;13496;51.040;13.680;2023-12-20T21:04:50;98970.03;;;17.27;51.55
25638;BME280;13496;51.040;13.680;2023-12-20T21:09:52;98971.44;;;17.23;50.78
25638;BME280;13496;51.040;13.680;2023-12-20T21:14:54;98962.78;;;17.29;51.52
25638;BME280;13496;51.040;13.680;2023-12-20T21:19:58;98963.59;;;17.30;52.06
25638;BME280;13496;51.040;13.680;2023-12-20T21:24:59;98938.38;;;17.29;52.16
25638;BME280;13496;51.040;13.680;2023-12-20T21:30:01;98943.81;;;17.27;51.60
25638;BME280;13496;51.040;13.680;2023-12-20T21:35:04;98917.41;;;17.22;50.35
25638;BME280;13496;51.040;13.680;2023-12-20T21:40:06;98905.31;;;17.21;50.67
25638;BME280;13496;51.040;13.680;2023-12-20T21:45:10;98892.38;;;17.20;51.66
25638;BME280;13496;51.040;13.680;2023-12-20T21:50:12;98904.50;;;17.21;53.02
25638;BME280;13496;51.040;13.680;2023-12-20T21:55:14;98879.47;;;17.18;51.40
25638;BME280;13496;51.040;13.680;2023-12-20T22:00:16;98864.38;;;17.13;50.77
25638;BME280;13496;51.040;13.680;2023-12-20T22:05:18;98855.88;;;17.11;51.67
25638;BME280;13496;51.040;13.680;2023-12-20T22:10:20;98850.63;;;17.05;50.25
25638;BME280;13496;51.040;13.680;2023-12-20T22:15:22;98837.75;;;17.03;49.68
25638;BME280;13496;51.040;13.680;2023-12-20T22:20:24;98839.97;;;17.06;50.05
25638;BME280;13496;51.040;13.680;2023-12-20T22:25:26;98838.53;;;17.04;50.16
25638;BME280;13496;51.040;13.680;2023-12-20T22:30:28;98844.97;;;17.01;50.34
25638;BME280;13496;51.040;13.680;2023-12-20T22:35:30;98832.88;;;16.93;49.97
25638;BME280;13496;51.040;13.680;2023-12-20T22:40:31;98813.31;;;16.89;49.68
25638;BME280;13496;51.040;13.680;2023-12-20T22:45:33;98811.91;;;16.93;51.91
25638;BME280;13496;51.040;13.680;2023-12-20T22:50:36;98789.97;;;16.95;51.74
25638;BME280;13496;51.040;13.680;2023-12-20T22:55:38;98785.31;;;16.97;49.79
25638;BME280;13496;51.040;13.680;2023-12-20T23:00:42;98773.41;;;17.01;52.28
25638;BME280;13496;51.040;13.680;2023-12-20T23:05:44;98763.75;;;16.95;51.21
25638;BME280;13496;51.040;13.680;2023-12-20T23:10:46;98757.91;;;16.99;51.58
25638;BME280;13496;51.040;13.680;2023-12-20T23:15:48;98739.75;;;16.98;50.53
25638;BME280;13496;51.040;13.680;2023-12-20T23:20:50;98742.19;;;16.99;52.72
25638;BME280;13496;51.040;13.680;2023-12-20T23:25:51;98715.78;;;17.01;52.28
25638;BME280;13496;51.040;13.680;2023-12-20T23:30:53;98698.63;;;17.05;51.91
25638;BME280;13496;51.040;13.680;2023-12-20T23:35:55;98700.84;;;17.01;51.88
25638;BME280;13496;51.040;13.680;2023-12-20T23:40:57;98697.25;;;16.96;51.43
25638;BME280;13496;51.040;13.680;2023-12-20T23:45:59;98679.31;;;16.92;51.48
25638;BME280;13496;51.040;13.680;2023-12-20T23:51:00;98666.59;;;16.89;51.43
25638;BME280;13496;51.040;13.680;2023-12-20T23:56:03;98665.19;;;16.93;53.02
